Time;durP1;ratioP1;P1;durP2;ratioP2;P2;SDS_P1;SDS_P2;PMS_P1;PMS_P2;Temp;Humidity;BMP_temperature;BMP_pressure;BME280_temperature;BME280_humidity;BME280_pressure;Samples;Min_cycle;Max_cycle;Signal;HPM_P1;HPM_P2
2023/01/09 01:46:06;;;;;;;;;;;;;;;;;;;;;
2023/01/09 01:48:47;;;;;;;2.08;0.90;;;;;;;;;;6287494;22;20003;-92
2023/01/09 01:51:38;;;;;;;0.85;0.57;;;;;;;;;;6264901;22;20224;-93
2023/01/09 01:54:06;;;;;;;3.47;0.80;;;;;;;;;;6257779;22;20320;-96
2023/01/09 01:59:28;;;;;;;2.70;0.75;;;;;;;;;;6210885;22;20003;-96
2023/01/09 02:02:05;;;;;;;1.55;0.75;;;;;;;;;;6253645;22;20003;-93
2023/01/09 02:04:35;;;;;;;3.60;1.15;;;;;;;;;;6257641;22;20042;-95
2023/01/09 02:07:09;;;;;;;8.00;1.60;;;;;;;;;;6247364;22;20073;-95
2023/01/09 02:09:36;;;;;;;4.93;1.45;;;;;;;;;;6248620;22;20080;-96
2023/01/09 02:12:24;;;;;;;;;;;;;;;;;;;;;
2023/01/09 02:15:05;;;;;;;5.03;1.67;;;;;;;;;;6262051;22;20046;-96
2023/01/09 02:18:06;;;;;;;2.75;1.23;;;;;;;;;;6256438;22;20471;-95
2023/01/09 02:20:35;;;;;;;4.20;1.70;;;;;;;;;;6256137;22;20012;-96
2023/01/09 02:23:29;;;;;;;4.72;2.00;;;;;;;;;;6256106;22;20091;-96
2023/01/09 02:26:35;;;;;;;3.38;1.75;;;;;;;;;;6254204;22;20451;-96
2023/01/09 02:29:17;;;;;;;5.30;1.92;;;;;;;;;;6275684;22;20316;-96
2023/01/09 02:31:56;;;;;;;5.50;1.67;;;;;;;;;;6244175;22;20010;-95
2023/01/09 02:34:25;;;;;;;1.30;0.95;;;;;;;;;;6243168;22;20015;-95
2023/01/09 02:37:14;;;;;;;;;;;;;;;;;;;;;
2023/01/09 02:39:51;;;;;;;7.40;1.45;;;;;;;;;;6271028;22;20079;-93
2023/01/09 02:42:20;;;;;;;5.10;1.48;;;;;;;;;;6244907;22;20026;-93
2023/01/09 02:45:02;;;;;;;7.93;2.20;;;;;;;;;;6247588;22;20122;-94
2023/01/09 02:47:28;;;;;;;2.88;1.55;;;;;;;;;;6220762;22;20636;-94
2023/01/09 02:50:07;;;;;;;2.33;1.50;;;;;;;;;;6236655;23;20012;-94
2023/01/09 02:53:33;;;;;;;4.40;1.65;;;;;;;;;;6232675;23;20362;-96
2023/01/09 02:59:18;;;;;;;3.78;0.98;;;;;;;;;;6230418;23;20031;-95
2023/01/09 03:08:21;;;;;;;2.85;1.20;;;;;;;;;;6231339;23;20016;-96
2023/01/09 03:11:36;;;;;;;;;;;;;;;;;;;;;
2023/01/09 03:14:11;;;;;;;2.47;1.73;;;;;;;;;;6179284;23;20088;-96
2023/01/09 03:26:24;;;;;;;7.80;1.97;;;;;;;;;;6032180;23;20022;-94
2023/01/09 03:28:53;;;;;;;5.47;1.52;;;;;;;;;;6048442;23;20238;-96
2023/01/09 03:31:45;;;;;;;5.40;2.15;;;;;;;;;;6091089;23;20061;-96
2023/01/09 03:34:44;;;;;;;;;;;;;;;;;;;;;
2023/01/09 03:40:33;;;;;;;17.33;2.23;;;;;;;;;;6072066;23;20447;-96
2023/01/09 03:49:51;;;;;;;14.25;2.13;;;;;;;;;;6213332;23;20339;-96
2023/01/09 03:52:40;;;;;;;;;;;;;;;;;;;;;
2023/01/09 03:58:30;;;;;;;4.43;2.00;;;;;;;;;;6183461;22;20098;-93
2023/01/09 04:04:28;;;;;;;7.15;1.80;;;;;;;;;;6181558;23;20016;-96
2023/01/09 04:09:55;;;;;;;10.88;2.95;;;;;;;;;;6211396;23;20031;-95
2023/01/09 04:19:16;;;;;;;;;;;;;;;;;;;;;
2023/01/09 04:21:47;;;;;;;;;;;;;;;;;;6094532;23;20923;-96
2023/01/09 04:28:06;;;;;;;0.98;0.73;;;;;;;;;;6090555;23;20014;-96
2023/01/09 04:40:20;;;;;;;13.73;3.47;;;;;;;;;;6088361;23;20257;-95
2023/01/09 04:59:45;;;;;;;9.93;3.72;;;;;;;;;;6272425;22;20153;-95
2023/01/09 05:03:13;;;;;;;8.57;3.35;;;;;;;;;;6222683;22;20018;-93
2023/01/09 05:06:16;;;;;;;8.50;3.15;;;;;;;;;;6094399;23;20064;-96
2023/01/09 05:11:50;;;;;;;9.57;2.92;;;;;;;;;;6118773;23;20043;-96
2023/01/09 05:14:45;;;;;;;13.55;4.88;;;;;;;;;;6116783;23;20018;-95
2023/01/09 05:20:30;;;;;;;11.85;4.32;;;;;;;;;;6097358;23;20014;-96
2023/01/09 05:30:04;;;;;;;11.40;4.97;;;;;;;;;;6033198;23;20164;-96
2023/01/09 05:36:09;;;;;;;17.00;5.10;;;;;;;;;;6008507;23;20453;-94
2023/01/09 05:42:02;;;;;;;13.93;5.45;;;;;;;;;;6033091;23;20424;-94
2023/01/09 05:44:28;;;;;;;20.88;7.40;;;;;;;;;;6118540;23;20017;-93
2023/01/09 05:46:56;;;;;;;19.52;6.43;;;;;;;;;;6171265;22;20631;-93
2023/01/09 05:49:22;;;;;;;13.35;5.13;;;;;;;;;;6216015;22;20011;-92
2023/01/09 05:51:48;;;;;;;21.48;6.97;;;;;;;;;;6216546;22;20328;-92
2023/01/09 05:54:26;;;;;;;10.75;5.47;;;;;;;;;;6193977;22;20028;-92
2023/01/09 05:56:52;;;;;;;15.07;6.43;;;;;;;;;;6180790;23;20009;-91
2023/01/09 05:59:18;;;;;;;16.55;6.30;;;;;;;;;;6179107;23;20013;-95
2023/01/09 06:01:44;;;;;;;17.70;6.15;;;;;;;;;;6174628;23;20013;-93
2023/01/09 06:04:17;;;;;;;16.33;7.40;;;;;;;;;;6180427;23;20913;-93
2023/01/09 06:06:43;;;;;;;16.85;6.35;;;;;;;;;;6182646;23;20024;-93
2023/01/09 06:09:09;;;;;;;24.23;7.97;;;;;;;;;;6179337;23;20036;-93
2023/01/09 06:11:37;;;;;;;15.75;6.88;;;;;;;;;;6180989;23;20071;-93
2023/01/09 06:14:03;;;;;;;16.77;6.80;;;;;;;;;;6205968;23;20544;-93
2023/01/09 06:16:29;;;;;;;15.25;7.93;;;;;;;;;;6181807;23;20487;-94
2023/01/09 06:18:56;;;;;;;6.90;4.07;;;;;;;;;;6179537;23;20005;-95
2023/01/09 06:21:22;;;;;;;20.65;8.93;;;;;;;;;;6208220;23;20011;-93
2023/01/09 06:23:48;;;;;;;12.98;5.93;;;;;;;;;;6182626;23;20013;-93
2023/01/09 06:26:14;;;;;;;20.27;8.63;;;;;;;;;;6182192;23;20334;-94
2023/01/09 06:28:40;;;;;;;11.57;6.60;;;;;;;;;;6182061;23;20005;-92
2023/01/09 06:31:31;;;;;;;17.90;9.35;;;;;;;;;;6179901;23;20051;-93
2023/01/09 06:33:57;;;;;;;13.13;6.35;;;;;;;;;;6186240;23;20017;-93
2023/01/09 06:36:23;;;;;;;19.15;8.93;;;;;;;;;;6207119;23;20000;-93
2023/01/09 06:38:55;;;;;;;30.25;9.77;;;;;;;;;;6205794;23;20017;-95
2023/01/09 06:41:27;;;;;;;16.70;5.95;;;;;;;;;;6181649;23;20013;-93
2023/01/09 06:43:53;;;;;;;22.60;7.25;;;;;;;;;;6181736;23;20013;-92
2023/01/09 06:46:19;;;;;;;22.15;9.45;;;;;;;;;;6155818;23;20480;-93
2023/01/09 06:48:46;;;;;;;21.13;9.25;;;;;;;;;;6179853;23;20399;-94
2023/01/09 06:51:12;;;;;;;27.35;9.27;;;;;;;;;;6207010;23;20051;-93
2023/01/09 06:53:38;;;;;;;17.83;8.48;;;;;;;;;;6189513;22;20028;-93
2023/01/09 06:56:05;;;;;;;9.43;4.78;;;;;;;;;;6211537;23;20009;-92
2023/01/09 06:58:31;;;;;;;21.38;9.05;;;;;;;;;;6209686;23;20008;-93
2023/01/09 07:01:00;;;;;;;17.25;7.75;;;;;;;;;;6211271;23;20381;-93
2023/01/09 07:03:26;;;;;;;26.80;6.88;;;;;;;;;;6237404;23;20399;-92
2023/01/09 07:05:52;;;;;;;27.17;8.70;;;;;;;;;;6211287;23;20070;-94
2023/01/09 07:08:18;;;;;;;24.80;9.35;;;;;;;;;;6211868;23;20081;-93
2023/01/09 07:10:45;;;;;;;17.05;6.25;;;;;;;;;;6211597;23;20008;-92
2023/01/09 07:13:11;;;;;;;19.40;8.85;;;;;;;;;;6237464;23;20008;-93
2023/01/09 07:15:37;;;;;;;17.60;6.18;;;;;;;;;;6212603;23;20505;-93
2023/01/09 07:18:03;;;;;;;11.10;3.85;;;;;;;;;;6212784;23;20039;-93
2023/01/09 07:20:29;;;;;;;23.58;10.48;;;;;;;;;;6237234;23;20823;-93
2023/01/09 07:22:58;;;;;;;24.92;10.15;;;;;;;;;;6235300;23;20008;-92
2023/01/09 07:25:24;;;;;;;15.38;6.38;;;;;;;;;;6236551;23;20008;-93
2023/01/09 07:27:50;;;;;;;8.15;3.33;;;;;;;;;;6211995;23;20577;-94
2023/01/09 07:30:17;;;;;;;24.77;8.63;;;;;;;;;;6211744;23;20012;-93
2023/01/09 07:32:46;;;;;;;18.83;7.47;;;;;;;;;;6237199;23;20012;-94
2023/01/09 07:35:15;;;;;;;17.02;8.65;;;;;;;;;;6210300;23;20083;-94
2023/01/09 07:37:41;;;;;;;17.45;7.38;;;;;;;;;;6211605;23;20009;-93
2023/01/09 07:40:07;;;;;;;22.05;8.15;;;;;;;;;;6210497;23;20018;-93
2023/01/09 07:42:36;;;;;;;13.65;6.55;;;;;;;;;;6209969;23;20135;-92
2023/01/09 07:45:03;;;;;;;15.73;7.70;;;;;;;;;;6213247;23;20014;-94
2023/01/09 07:47:29;;;;;;;14.63;7.55;;;;;;;;;;6236814;23;20062;-94
2023/01/09 07:49:55;;;;;;;17.73;7.72;;;;;;;;;;6236423;23;20012;-93
2023/01/09 07:52:22;;;;;;;14.25;8.00;;;;;;;;;;6212312;23;20012;-93
2023/01/09 07:57:50;;;;;;;15.93;6.47;;;;;;;;;;6237083;23;20444;-93
2023/01/09 08:00:17;;;;;;;13.85;7.28;;;;;;;;;;6236037;23;20004;-94
2023/01/09 08:02:43;;;;;;;12.48;5.07;;;;;;;;;;6234853;23;20542;-92
2023/01/09 08:05:13;;;;;;;14.63;6.57;;;;;;;;;;6210839;23;20012;-92
2023/01/09 08:07:40;;;;;;;15.02;5.45;;;;;;;;;;6212607;23;20024;-92
2023/01/09 08:10:06;;;;;;;17.52;6.35;;;;;;;;;;6237194;23;20015;-92
2023/01/09 08:12:32;;;;;;;11.63;6.05;;;;;;;;;;6235599;23;20099;-93
2023/01/09 08:14:58;;;;;;;15.30;6.32;;;;;;;;;;6210750;23;20015;-93
2023/01/09 08:17:27;;;;;;;13.40;5.93;;;;;;;;;;6211344;23;20384;-92
2023/01/09 08:19:53;;;;;;;20.40;5.60;;;;;;;;;;6211827;23;20011;-92
2023/01/09 08:22:19;;;;;;;14.95;5.78;;;;;;;;;;6209968;23;20101;-92
2023/01/09 08:24:47;;;;;;;13.18;5.75;;;;;;;;;;6236255;23;20471;-92
2023/01/09 08:27:13;;;;;;;14.35;5.78;;;;;;;;;;6211587;23;20023;-93
2023/01/09 08:29:39;;;;;;;16.50;5.53;;;;;;;;;;6237521;23;20066;-93
2023/01/09 08:32:06;;;;;;;15.75;6.28;;;;;;;;;;6211239;23;20070;-93
2023/01/09 08:34:32;;;;;;;6.65;3.42;;;;;;;;;;6211067;23;20373;-93
2023/01/09 08:36:58;;;;;;;17.48;5.75;;;;;;;;;;6216163;23;20008;-92
2023/01/09 08:39:26;;;;;;;13.27;5.95;;;;;;;;;;6211384;23;20008;-93
2023/01/09 08:47:23;;;;;;;14.55;6.25;;;;;;;;;;6237954;23;20065;-93
2023/01/09 08:49:49;;;;;;;14.70;6.30;;;;;;;;;;6212375;23;20099;-92
2023/01/09 08:52:15;;;;;;;16.30;6.18;;;;;;;;;;6235957;23;20054;-92
2023/01/09 08:54:41;;;;;;;14.85;3.97;;;;;;;;;;6212457;22;20476;-93
2023/01/09 08:57:07;;;;;;;13.73;5.75;;;;;;;;;;6211765;23;20030;-92
2023/01/09 08:59:33;;;;;;;18.00;6.63;;;;;;;;;;6235862;23;20008;-93
2023/01/09 09:02:00;;;;;;;8.57;4.75;;;;;;;;;;6211346;23;20433;-93
2023/01/09 09:04:26;;;;;;;11.55;5.50;;;;;;;;;;6235676;23;20034;-92
2023/01/09 09:06:52;;;;;;;9.45;5.20;;;;;;;;;;6210992;23;20019;-92
2023/01/09 09:09:38;;;;;;;15.75;5.28;;;;;;;;;;6210692;23;20016;-92
2023/01/09 09:12:04;;;;;;;17.08;4.80;;;;;;;;;;6236494;23;20016;-94
2023/01/09 09:17:15;;;;;;;10.98;4.22;;;;;;;;;;6235980;23;20023;-92
2023/01/09 09:19:44;;;;;;;21.20;4.53;;;;;;;;;;6238155;22;20488;-93
2023/01/09 09:22:10;;;;;;;8.07;3.63;;;;;;;;;;6210882;23;20054;-92
2023/01/09 09:24:36;;;;;;;11.85;4.15;;;;;;;;;;6209998;23;20022;-93
2023/01/09 09:27:03;;;;;;;9.75;3.85;;;;;;;;;;6209759;23;20022;-92
2023/01/09 09:29:32;;;;;;;9.85;4.40;;;;;;;;;;6211034;23;20456;-93
2023/01/09 09:31:58;;;;;;;10.93;4.10;;;;;;;;;;6210631;23;20012;-93
2023/01/09 09:34:24;;;;;;;9.15;3.97;;;;;;;;;;6236742;23;20008;-92
2023/01/09 09:36:53;;;;;;;9.57;3.78;;;;;;;;;;6215654;23;20016;-93
2023/01/09 09:39:19;;;;;;;8.38;2.22;;;;;;;;;;6211455;23;20012;-93
2023/01/09 09:45:06;;;;;;;8.45;3.83;;;;;;;;;;6172748;23;20013;-92
2023/01/09 09:47:32;;;;;;;7.20;3.17;;;;;;;;;;6148253;23;20016;-92
2023/01/09 09:50:05;;;;;;;6.53;3.15;;;;;;;;;;6148375;23;20020;-92
2023/01/09 09:52:38;;;;;;;5.50;3.20;;;;;;;;;;6162242;23;20019;-92
2023/01/09 09:55:10;;;;;;;8.35;4.05;;;;;;;;;;6236688;22;20099;-92
2023/01/09 09:57:37;;;;;;;9.07;3.45;;;;;;;;;;6234900;23;20119;-91
2023/01/09 10:00:05;;;;;;;10.75;3.42;;;;;;;;;;6210295;23;20004;-92
2023/01/09 10:02:50;;;;;;;5.18;3.13;;;;;;;;;;6212244;23;20008;-92
2023/01/09 10:05:30;;;;;;;6.72;3.60;;;;;;;;;;6235376;23;20499;-93
2023/01/09 10:07:57;;;;;;;13.20;3.65;;;;;;;;;;6230106;23;20043;-93
2023/01/09 10:10:32;;;;;;;5.20;3.10;;;;;;;;;;6210935;23;20007;-93
2023/01/09 10:15:51;;;;;;;11.60;3.38;;;;;;;;;;6236654;23;20038;-92
2023/01/09 10:18:23;;;;;;;6.70;3.10;;;;;;;;;;6236345;23;20004;-92
2023/01/09 10:20:55;;;;;;;8.68;3.38;;;;;;;;;;6234011;23;20019;-93
2023/01/09 10:23:22;;;;;;;13.10;2.85;;;;;;;;;;6237847;23;20016;-92
2023/01/09 10:25:48;;;;;;;5.35;2.90;;;;;;;;;;6236703;23;20392;-92
2023/01/09 10:28:33;;;;;;;9.05;3.85;;;;;;;;;;6237477;23;20091;-93
2023/01/09 10:31:04;;;;;;;10.70;3.70;;;;;;;;;;6237395;23;20008;-93
2023/01/09 10:33:36;;;;;;;8.02;3.42;;;;;;;;;;6237508;23;20027;-93
2023/01/09 10:36:25;;;;;;;11.27;3.00;;;;;;;;;;6238347;23;20345;-92
2023/01/09 10:38:53;;;;;;;6.38;3.17;;;;;;;;;;6234197;23;20011;-94
2023/01/09 10:41:27;;;;;;;8.85;3.50;;;;;;;;;;6212318;23;20762;-93
2023/01/09 10:43:57;;;;;;;7.13;3.47;;;;;;;;;;6237046;23;20710;-94
2023/01/09 10:46:27;;;;;;;8.15;3.10;;;;;;;;;;6237975;23;20444;-91
2023/01/09 10:49:00;;;;;;;5.60;3.20;;;;;;;;;;6237387;23;20463;-93
2023/01/09 10:51:36;;;;;;;13.00;3.25;;;;;;;;;;6237932;23;20008;-93
2023/01/09 10:54:04;;;;;;;8.20;3.00;;;;;;;;;;6213719;22;20023;-93
2023/01/09 10:56:36;;;;;;;7.70;2.85;;;;;;;;;;6237671;23;20443;-93
2023/01/09 10:59:02;;;;;;;12.32;3.40;;;;;;;;;;6237465;23;20004;-93
2023/01/09 11:01:31;;;;;;;7.60;2.97;;;;;;;;;;6211252;23;20027;-93
2023/01/09 11:03:58;;;;;;;10.25;3.20;;;;;;;;;;6236708;23;20008;-93
2023/01/09 11:06:56;;;;;;;9.55;3.55;;;;;;;;;;6236891;23;20240;-93
2023/01/09 11:09:22;;;;;;;8.48;2.75;;;;;;;;;;6203778;23;20546;-93
2023/01/09 11:11:48;;;;;;;12.55;3.80;;;;;;;;;;6237416;23;20008;-93
2023/01/09 11:17:27;;;;;;;2.43;1.90;;;;;;;;;;6231306;22;20000;-91
2023/01/09 11:20:06;;;;;;;13.45;3.30;;;;;;;;;;6213791;23;20273;-93
2023/01/09 11:22:43;;;;;;;1.52;1.02;;;;;;;;;;6235853;23;20004;-93
2023/01/09 11:25:19;;;;;;;7.22;2.63;;;;;;;;;;6238248;23;20016;-93
2023/01/09 11:28:01;;;;;;;7.40;2.47;;;;;;;;;;6211984;23;20016;-93
2023/01/09 11:30:27;;;;;;;8.00;2.72;;;;;;;;;;6237041;23;20042;-93
2023/01/09 11:32:58;;;;;;;6.63;3.10;;;;;;;;;;6212500;23;20008;-93
2023/01/09 11:35:32;;;;;;;7.60;3.35;;;;;;;;;;6211914;23;20012;-92
2023/01/09 11:38:17;;;;;;;10.50;3.92;;;;;;;;;;6237816;23;20014;-92
2023/01/09 11:40:51;;;;;;;10.75;3.53;;;;;;;;;;6213497;23;20035;-93
2023/01/09 11:43:31;;;;;;;9.00;3.22;;;;;;;;;;6239200;23;20015;-91
2023/01/09 11:45:59;;;;;;;7.60;4.25;;;;;;;;;;6240507;23;20095;-93
2023/01/09 11:48:27;;;;;;;8.73;3.28;;;;;;;;;;6239625;23;20036;-93
2023/01/09 11:50:55;;;;;;;9.13;3.30;;;;;;;;;;6242526;23;20012;-93
2023/01/09 11:53:21;;;;;;;9.95;3.05;;;;;;;;;;6242444;23;20494;-93
2023/01/09 11:55:51;;;;;;;7.93;3.17;;;;;;;;;;6239592;22;20016;-94
2023/01/09 11:58:20;;;;;;;8.40;3.10;;;;;;;;;;6240402;23;20054;-93
2023/01/09 12:00:55;;;;;;;8.10;2.85;;;;;;;;;;6215160;23;20004;-92
2023/01/09 12:03:36;;;;;;;9.03;3.20;;;;;;;;;;6241039;23;20016;-92
2023/01/09 12:06:02;;;;;;;7.90;3.20;;;;;;;;;;6238505;23;20016;-93
2023/01/09 12:08:48;;;;;;;8.95;3.60;;;;;;;;;;6240100;23;20500;-93
2023/01/09 12:11:36;;;;;;;15.35;3.58;;;;;;;;;;6246436;23;20424;-92
2023/01/09 12:14:13;;;;;;;5.00;3.10;;;;;;;;;;6239457;23;20809;-92
2023/01/09 12:16:57;;;;;;;12.55;3.05;;;;;;;;;;6239772;23;20468;-93
2023/01/09 12:19:41;;;;;;;12.23;3.47;;;;;;;;;;6239716;23;20004;-93
2023/01/09 12:22:22;;;;;;;14.48;3.88;;;;;;;;;;6236216;23;20000;-94
2023/01/09 12:25:03;;;;;;;11.50;3.85;;;;;;;;;;6211290;23;20008;-93
2023/01/09 12:27:36;;;;;;;9.05;3.88;;;;;;;;;;6236747;23;20220;-91
2023/01/09 12:30:20;;;;;;;12.18;3.72;;;;;;;;;;6237090;23;20007;-93
2023/01/09 12:32:49;;;;;;;7.47;3.42;;;;;;;;;;6211897;23;20008;-93
2023/01/09 12:35:20;;;;;;;17.90;4.25;;;;;;;;;;6237261;23;20015;-93
2023/01/09 12:38:02;;;;;;;11.68;4.22;;;;;;;;;;6238295;23;20008;-93
2023/01/09 12:40:28;;;;;;;7.72;3.13;;;;;;;;;;6240351;23;20107;-93
2023/01/09 12:43:10;;;;;;;9.10;4.00;;;;;;;;;;6240869;23;20753;-92
2023/01/09 12:45:46;;;;;;;9.30;4.25;;;;;;;;;;6239538;23;20070;-93
2023/01/09 12:48:12;;;;;;;;;;;;;;;;;;6238811;23;20004;-93
2023/01/09 12:50:47;;;;;;;11.32;3.83;;;;;;;;;;6238663;23;19991;-93
2023/01/09 12:53:16;;;;;;;10.05;3.90;;;;;;;;;;6212193;23;20456;-93
2023/01/09 12:55:44;;;;;;;15.77;4.15;;;;;;;;;;6240227;22;20028;-93
2023/01/09 12:58:22;;;;;;;7.85;4.05;;;;;;;;;;6237056;23;20030;-92
2023/01/09 13:00:55;;;;;;;9.02;4.03;;;;;;;;;;6212220;23;20012;-91
2023/01/09 13:03:29;;;;;;;6.45;4.30;;;;;;;;;;6213605;23;20026;-93
2023/01/09 13:05:58;;;;;;;8.10;4.30;;;;;;;;;;6239047;23;20019;-93
2023/01/09 13:08:34;;;;;;;11.30;4.57;;;;;;;;;;6238161;23;20091;-93
2023/01/09 13:11:16;;;;;;;11.73;4.82;;;;;;;;;;6237992;23;20012;-92
2023/01/09 13:13:47;;;;;;;17.05;4.97;;;;;;;;;;6212663;23;20387;-93
2023/01/09 13:16:15;;;;;;;8.35;5.25;;;;;;;;;;6238206;23;20416;-92
2023/01/09 13:18:44;;;;;;;8.48;4.82;;;;;;;;;;6240337;23;20535;-92
2023/01/09 13:21:12;;;;;;;11.27;5.00;;;;;;;;;;6212256;23;20004;-93
2023/01/09 13:23:53;;;;;;;9.52;5.25;;;;;;;;;;6239594;23;20008;-93
2023/01/09 13:26:25;;;;;;;13.70;6.43;;;;;;;;;;6238445;23;20019;-92
2023/01/09 13:28:53;;;;;;;11.88;4.38;;;;;;;;;;6239436;23;20432;-93
2023/01/09 13:31:27;;;;;;;10.77;5.38;;;;;;;;;;6238478;23;20710;-92
2023/01/09 13:33:55;;;;;;;14.63;4.75;;;;;;;;;;6237729;23;20392;-93
2023/01/09 13:36:37;;;;;;;13.13;5.65;;;;;;;;;;6238497;23;20059;-93
2023/01/09 13:39:04;;;;;;;13.35;5.70;;;;;;;;;;6238327;23;20008;-93
2023/01/09 13:44:18;;;;;;;16.33;6.67;;;;;;;;;;6218224;23;20027;-92
2023/01/09 13:46:46;;;;;;;13.48;5.88;;;;;;;;;;6238454;23;20095;-93
2023/01/09 13:49:34;;;;;;;10.85;6.50;;;;;;;;;;6239260;23;20471;-93
2023/01/09 13:52:04;;;;;;;15.63;6.85;;;;;;;;;;6237317;23;20019;-93
2023/01/09 13:54:49;;;;;;;14.27;6.85;;;;;;;;;;6243936;22;20040;-93
2023/01/09 13:57:15;;;;;;;11.70;6.00;;;;;;;;;;6244261;22;20003;-94
2023/01/09 13:59:43;;;;;;;14.10;5.97;;;;;;;;;;6269564;22;20010;-92
2023/01/09 14:02:28;;;;;;;17.27;5.82;;;;;;;;;;6218559;22;20011;-93
2023/01/09 14:04:55;;;;;;;10.90;4.78;;;;;;;;;;6243762;22;20432;-92
2023/01/09 14:07:31;;;;;;;10.88;5.93;;;;;;;;;;6242113;22;20054;-92
2023/01/09 14:09:59;;;;;;;18.70;5.90;;;;;;;;;;6241840;22;20019;-92
2023/01/09 14:12:26;;;;;;;18.00;6.20;;;;;;;;;;6241769;22;20093;-92
2023/01/09 14:14:54;;;;;;;14.23;6.65;;;;;;;;;;6239239;22;20008;-93
2023/01/09 14:17:30;;;;;;;17.48;7.43;;;;;;;;;;6216647;22;20007;-93
2023/01/09 14:19:57;;;;;;;16.77;6.72;;;;;;;;;;6243461;22;20039;-92
2023/01/09 14:22:25;;;;;;;13.90;6.93;;;;;;;;;;6215522;22;20008;-93
2023/01/09 14:24:55;;;;;;;17.73;6.65;;;;;;;;;;6240721;22;20521;-93
2023/01/09 14:27:40;;;;;;;20.40;7.43;;;;;;;;;;6218063;22;20095;-92
2023/01/09 14:30:24;;;;;;;18.55;6.53;;;;;;;;;;6241996;22;20424;-92
2023/01/09 14:33:09;;;;;;;27.10;7.15;;;;;;;;;;6241028;22;20014;-91
2023/01/09 14:35:41;;;;;;;16.17;6.93;;;;;;;;;;6241912;22;20007;-93
2023/01/09 14:38:19;;;;;;;17.98;7.43;;;;;;;;;;6241473;22;20022;-93
2023/01/09 14:40:47;;;;;;;15.38;7.22;;;;;;;;;;6242542;22;20061;-93
2023/01/09 14:43:26;;;;;;;18.88;6.53;;;;;;;;;;6238261;22;20008;-93
2023/01/09 14:45:54;;;;;;;12.05;5.60;;;;;;;;;;6237976;22;20012;-92
2023/01/09 14:48:23;;;;;;;20.88;7.43;;;;;;;;;;6217603;22;20027;-92
2023/01/09 14:50:54;;;;;;;18.92;6.20;;;;;;;;;;6216614;22;20016;-92
2023/01/09 14:53:29;;;;;;;23.55;7.55;;;;;;;;;;6240287;22;20141;-93
2023/01/09 14:55:59;;;;;;;15.77;6.00;;;;;;;;;;6238870;22;20019;-93
2023/01/09 14:58:26;;;;;;;16.23;6.20;;;;;;;;;;6211726;23;20019;-92
2023/01/09 15:00:59;;;;;;;15.73;5.63;;;;;;;;;;6237907;23;20015;-91
2023/01/09 15:03:26;;;;;;;20.17;5.90;;;;;;;;;;6236497;23;20008;-92
2023/01/09 15:05:52;;;;;;;24.05;6.03;;;;;;;;;;6237231;23;20019;-93
2023/01/09 15:08:22;;;;;;;15.20;5.53;;;;;;;;;;6210636;23;20012;-92
2023/01/09 15:10:49;;;;;;;18.75;5.68;;;;;;;;;;6234364;23;20123;-92
2023/01/09 15:13:18;;;;;;;25.85;4.90;;;;;;;;;;6234722;23;20047;-92
2023/01/09 15:15:47;;;;;;;15.65;5.47;;;;;;;;;;6236497;23;20008;-93
2023/01/09 15:18:25;;;;;;;14.60;5.30;;;;;;;;;;6210429;23;20051;-93
2023/01/09 15:20:53;;;;;;;18.75;4.85;;;;;;;;;;6235882;23;20012;-92
2023/01/09 15:23:24;;;;;;;20.63;5.38;;;;;;;;;;6233946;23;20012;-93
2023/01/09 15:25:50;;;;;;;9.95;4.32;;;;;;;;;;6235275;23;20146;-92
2023/01/09 15:28:22;;;;;;;12.32;4.38;;;;;;;;;;6211557;23;20099;-93
2023/01/09 15:30:54;;;;;;;18.10;4.68;;;;;;;;;;6237297;23;20091;-93
2023/01/09 15:33:20;;;;;;;24.20;5.40;;;;;;;;;;6236748;23;20013;-92
2023/01/09 15:35:49;;;;;;;18.50;4.72;;;;;;;;;;6212175;23;20074;-93
2023/01/09 15:38:21;;;;;;;16.85;5.10;;;;;;;;;;6234998;23;20068;-93
2023/01/09 15:40:54;;;;;;;23.63;5.63;;;;;;;;;;6235541;23;20000;-93
2023/01/09 15:43:23;;;;;;;28.98;4.85;;;;;;;;;;6235001;23;20031;-93
2023/01/09 15:45:52;;;;;;;22.58;5.05;;;;;;;;;;6233307;23;20016;-94
2023/01/09 15:48:23;;;;;;;16.85;5.60;;;;;;;;;;6209906;23;20440;-93
2023/01/09 15:50:51;;;;;;;15.68;4.55;;;;;;;;;;6235793;23;20012;-93
2023/01/09 15:53:18;;;;;;;11.48;4.95;;;;;;;;;;6211664;23;20016;-92
2023/01/09 15:55:51;;;;;;;15.35;3.97;;;;;;;;;;6239445;22;20087;-92
2023/01/09 15:58:30;;;;;;;18.77;4.70;;;;;;;;;;6233234;23;20340;-92
2023/01/09 16:01:01;;;;;;;20.10;4.90;;;;;;;;;;6235397;23;20392;-92
2023/01/09 16:03:27;;;;;;;20.30;4.72;;;;;;;;;;6235211;23;20483;-92
2023/01/09 16:06:16;;;;;;;19.70;4.25;;;;;;;;;;6236367;23;20432;-92
2023/01/09 16:08:52;;;;;;;23.27;4.63;;;;;;;;;;6205256;23;20009;-93
2023/01/09 16:11:24;;;;;;;14.45;4.38;;;;;;;;;;6233192;23;20265;-92
2023/01/09 16:13:51;;;;;;;21.48;5.18;;;;;;;;;;6235410;23;20043;-92
2023/01/09 16:16:24;;;;;;;22.70;4.15;;;;;;;;;;6209524;23;20014;-92
2023/01/09 16:18:51;;;;;;;17.67;4.72;;;;;;;;;;6235778;23;20396;-92
2023/01/09 16:21:21;;;;;;;22.30;4.78;;;;;;;;;;6235043;23;20008;-92
2023/01/09 16:23:52;;;;;;;19.23;4.95;;;;;;;;;;6234432;23;20004;-92
2023/01/09 16:26:28;;;;;;;19.48;4.28;;;;;;;;;;6238102;23;20456;-93
2023/01/09 16:28:54;;;;;;;30.23;3.90;;;;;;;;;;6239938;23;20007;-93
2023/01/09 16:31:33;;;;;;;20.55;4.22;;;;;;;;;;6237626;23;20461;-91
2023/01/09 16:34:04;;;;;;;12.88;3.17;;;;;;;;;;6237643;23;20169;-94
2023/01/09 16:36:30;;;;;;;15.95;3.35;;;;;;;;;;6236283;23;20492;-92
2023/01/09 16:39:01;;;;;;;24.17;3.38;;;;;;;;;;6235597;23;20110;-92
2023/01/09 16:44:12;;;;;;;12.40;2.88;;;;;;;;;;6238579;23;20376;-93
2023/01/09 16:46:42;;;;;;;11.80;3.22;;;;;;;;;;6210268;23;20424;-91
2023/01/09 16:49:22;;;;;;;23.73;5.15;;;;;;;;;;6237019;23;20447;-92
2023/01/09 16:51:48;;;;;;;17.35;3.55;;;;;;;;;;6210431;23;20035;-92
2023/01/09 16:54:15;;;;;;;21.42;2.83;;;;;;;;;;6231519;23;20529;-92
2023/01/09 16:56:42;;;;;;;11.40;3.50;;;;;;;;;;6209141;22;20058;-92
2023/01/09 16:59:19;;;;;;;21.40;3.65;;;;;;;;;;6233974;23;20058;-91
2023/01/09 17:01:47;;;;;;;24.85;4.35;;;;;;;;;;6237459;23;20004;-91
2023/01/09 17:04:22;;;;;;;13.13;3.17;;;;;;;;;;6234280;23;20347;-92
2023/01/09 17:06:48;;;;;;;16.75;3.20;;;;;;;;;;6210424;23;20356;-92
2023/01/09 17:09:16;;;;;;;12.85;3.45;;;;;;;;;;6208288;23;20012;-93
2023/01/09 17:11:45;;;;;;;23.45;3.25;;;;;;;;;;6235418;23;20304;-92
2023/01/09 17:14:15;;;;;;;17.60;3.95;;;;;;;;;;6208410;23;20012;-92
2023/01/09 17:16:47;;;;;;;22.05;3.58;;;;;;;;;;6237182;23;20493;-92
2023/01/09 17:19:16;;;;;;;16.30;3.88;;;;;;;;;;6238579;23;20000;-93
2023/01/09 17:21:42;;;;;;;14.88;3.75;;;;;;;;;;6236139;23;20432;-91
2023/01/09 17:29:45;;;;;;;14.73;3.97;;;;;;;;;;6240077;23;20022;-92
2023/01/09 17:32:17;;;;;;;20.90;4.03;;;;;;;;;;6213029;23;20008;-93
2023/01/09 17:34:47;;;;;;;23.63;4.60;;;;;;;;;;6237630;23;20332;-91
2023/01/09 17:37:22;;;;;;;24.02;4.22;;;;;;;;;;6237342;23;20039;-93
2023/01/09 17:39:48;;;;;;;26.23;4.13;;;;;;;;;;6210426;23;20442;-93
2023/01/09 17:42:16;;;;;;;23.58;3.70;;;;;;;;;;6235810;23;20755;-92
2023/01/09 17:44:42;;;;;;;17.30;4.00;;;;;;;;;;6237097;23;20639;-91
2023/01/09 17:47:14;;;;;;;18.75;3.92;;;;;;;;;;6237172;23;20004;-91
2023/01/09 17:49:41;;;;;;;29.85;4.03;;;;;;;;;;6210151;23;20016;-93
2023/01/09 17:52:07;;;;;;;25.75;4.93;;;;;;;;;;6213441;23;20019;-93
2023/01/09 17:54:33;;;;;;;9.50;3.00;;;;;;;;;;6238277;23;20158;-92
2023/01/09 17:57:16;;;;;;;26.98;4.03;;;;;;;;;;6243619;22;20236;-93
2023/01/09 17:59:43;;;;;;;31.15;5.22;;;;;;;;;;6218046;23;20016;-93
2023/01/09 18:02:17;;;;;;;16.27;4.13;;;;;;;;;;6217169;23;20107;-92
2023/01/09 18:04:46;;;;;;;18.35;3.92;;;;;;;;;;6214882;23;20167;-92
2023/01/09 18:07:15;;;;;;;26.95;4.78;;;;;;;;;;6215633;23;20004;-94
2023/01/09 18:09:49;;;;;;;20.77;4.32;;;;;;;;;;6240288;23;20427;-95
2023/01/09 18:12:18;;;;;;;24.15;3.58;;;;;;;;;;6237695;23;20031;-92
2023/01/09 18:14:44;;;;;;;19.77;3.83;;;;;;;;;;6236977;23;20008;-92
2023/01/09 18:17:14;;;;;;;11.15;2.78;;;;;;;;;;6213585;23;20141;-92
2023/01/09 18:19:41;;;;;;;24.33;4.05;;;;;;;;;;6239048;23;20038;-93
2023/01/09 18:22:07;;;;;;;28.38;5.05;;;;;;;;;;6212174;23;20010;-93
2023/01/09 18:24:34;;;;;;;27.95;4.97;;;;;;;;;;6213536;23;20020;-93
2023/01/09 18:27:00;;;;;;;13.48;3.53;;;;;;;;;;6238304;23;20008;-93
2023/01/09 18:29:26;;;;;;;25.02;4.60;;;;;;;;;;6213243;23;20066;-93
2023/01/09 18:31:52;;;;;;;23.13;3.47;;;;;;;;;;6213754;23;20717;-93
2023/01/09 18:34:18;;;;;;;33.20;4.65;;;;;;;;;;6238141;23;20008;-93
2023/01/09 18:36:44;;;;;;;19.85;3.83;;;;;;;;;;6213844;23;20008;-92
2023/01/09 18:39:11;;;;;;;23.92;4.47;;;;;;;;;;6208676;23;20012;-92
2023/01/09 18:41:37;;;;;;;27.45;5.18;;;;;;;;;;6235829;23;20014;-93
2023/01/09 18:44:03;;;;;;;22.48;3.78;;;;;;;;;;6235297;23;20031;-93
2023/01/09 18:46:32;;;;;;;14.27;3.88;;;;;;;;;;6214462;23;20008;-92
2023/01/09 18:49:00;;;;;;;38.95;5.63;;;;;;;;;;6240183;23;20004;-93
2023/01/09 18:51:27;;;;;;;19.75;4.00;;;;;;;;;;6240079;23;20012;-92
2023/01/09 18:53:53;;;;;;;12.32;3.75;;;;;;;;;;6214514;23;20110;-93
2023/01/09 18:56:20;;;;;;;14.43;4.30;;;;;;;;;;6224034;22;20039;-91
2023/01/09 18:58:48;;;;;;;27.52;5.13;;;;;;;;;;6241891;23;20476;-92
2023/01/09 19:01:15;;;;;;;23.23;4.50;;;;;;;;;;6239215;23;20039;-91
2023/01/09 19:03:41;;;;;;;21.23;4.65;;;;;;;;;;6214001;23;20008;-93